createdAt,value
2022-11-29T00:00:18.382Z,7.18
2022-11-29T00:01:18.884Z,7.18
2022-11-29T00:02:19.219Z,7.21
2022-11-29T00:03:19.817Z,7.21
2022-11-29T00:04:20.655Z,7.18
2022-11-29T00:05:20.892Z,7.19
2022-11-29T00:06:21.791Z,7.15
2022-11-29T00:07:22.209Z,7.1
2022-11-29T00:08:23.187Z,7.13
2022-11-29T00:09:23.803Z,7.14
2022-11-29T00:10:23.450Z,7.15
2022-11-29T00:11:24.635Z,7.04
2022-11-29T00:12:25.124Z,7.08
2022-11-29T00:13:25.057Z,7.07
2022-11-29T00:14:25.680Z,7.11
2022-11-29T00:15:26.313Z,7.18
2022-11-29T00:16:27.072Z,7.15
2022-11-29T00:17:27.585Z,7.1
2022-11-29T00:18:27.791Z,7.01
2022-11-29T00:19:28.386Z,7.18
2022-11-29T00:20:28.596Z,7.13
2022-11-29T00:21:29.491Z,7.22
2022-11-29T00:22:30.124Z,7.13
2022-11-29T00:23:30.746Z,7.14
2022-11-29T00:24:31.981Z,7.1
2022-11-29T00:25:32.001Z,7.07
2022-11-29T00:26:32.314Z,7.11
2022-11-29T00:27:33.222Z,7.11
2022-11-29T00:28:33.537Z,7.07
2022-11-29T00:29:33.682Z,7.13
2022-11-29T00:30:34.699Z,7.11
2022-11-29T00:31:34.509Z,7.01
2022-11-29T00:32:35.134Z,7.05
2022-11-29T00:33:36.045Z,7.04
2022-11-29T00:34:36.981Z,7.15
2022-11-29T00:35:37.785Z,7.13
2022-11-29T00:36:37.957Z,7.08
2022-11-29T00:37:38.568Z,7.14
2022-11-29T00:38:39.053Z,7.15
2022-11-29T00:39:39.394Z,7.11
2022-11-29T00:40:40.032Z,7.08
2022-11-29T00:41:40.939Z,7.11
2022-11-29T00:42:41.528Z,7.1
2022-11-29T00:43:42.179Z,7.13
2022-11-29T00:44:43.062Z,7.13
2022-11-29T00:45:42.929Z,7.14
2022-11-29T00:46:43.282Z,7.15
2022-11-29T00:47:43.203Z,7.1
2022-11-29T00:48:44.150Z,7.05
2022-11-29T00:49:45.227Z,7.08
2022-11-29T00:50:45.474Z,7.07
2022-11-29T00:51:46.396Z,7.08
2022-11-29T00:52:47.308Z,7.19
2022-11-29T00:53:47.939Z,7.07
2022-11-29T00:54:48.434Z,7.05
2022-11-29T00:55:48.624Z,7.08
2022-11-29T00:56:48.838Z,7.11
2022-11-29T00:57:49.155Z,7.07
2022-11-29T00:58:49.766Z,7.01
2022-11-29T00:59:50.784Z,7.05
2022-11-29T01:00:50.394Z,7.01
2022-11-29T01:01:51.555Z,7.05
2022-11-29T01:02:52.484Z,7.05
2022-11-29T01:03:52.545Z,7.08
2022-11-29T01:04:53.520Z,7
2022-11-29T01:05:54.174Z,7.08
2022-11-29T01:06:54.374Z,7.04
2022-11-29T01:07:55.464Z,7.11
2022-11-29T01:08:56.124Z,7.04
2022-11-29T01:09:56.175Z,7.03
2022-11-29T01:10:57.111Z,7.05
2022-11-29T01:11:57.726Z,7
2022-11-29T01:12:58.343Z,7.03
2022-11-29T01:13:59.233Z,7.04
2022-11-29T01:14:59.439Z,7.05
2022-11-29T01:16:00.343Z,7.05
2022-11-29T01:17:00.434Z,7.01
2022-11-29T01:18:00.988Z,6.96
2022-11-29T01:19:00.899Z,7.01
2022-11-29T01:20:01.718Z,6.97
2022-11-29T01:21:01.962Z,6.97
2022-11-29T01:22:02.439Z,6.97
2022-11-29T01:23:03.037Z,6.97
2022-11-29T01:24:03.655Z,7.04
2022-11-29T01:25:04.873Z,7.04
2022-11-29T01:26:04.529Z,7.05
2022-11-29T01:27:05.716Z,7.04
2022-11-29T01:28:05.638Z,7
2022-11-29T01:29:06.375Z,7.01
2022-11-29T01:30:07.079Z,7
2022-11-29T01:31:07.841Z,7.01
2022-11-29T01:32:09.105Z,7.03
2022-11-29T01:33:09.335Z,7.1
2022-11-29T01:34:08.875Z,7.08
2022-11-29T01:35:10.379Z,7.13
2022-11-29T01:36:11.016Z,7.03
2022-11-29T01:37:11.946Z,7.14
2022-11-29T01:38:12.564Z,7.07
2022-11-29T01:39:13.479Z,7.01
2022-11-29T01:40:14.816Z,7.1
2022-11-29T01:41:15.155Z,7.11
2022-11-29T01:42:16.060Z,7.15
2022-11-29T01:43:16.672Z,7.04
2022-11-29T01:44:16.871Z,7.1
2022-11-29T01:45:17.782Z,7.08
2022-11-29T01:46:18.567Z,7.08
2022-11-29T01:47:19.663Z,7.08
2022-11-29T01:48:20.578Z,7.07
2022-11-29T01:49:21.195Z,7.11
2022-11-29T01:50:22.527Z,7.15
2022-11-29T01:51:22.467Z,7.15
2022-11-29T01:52:22.371Z,7.07
2022-11-29T01:53:22.721Z,7.08
2022-11-29T01:54:23.931Z,7.13
2022-11-29T01:55:24.982Z,7.15
2022-11-29T01:56:25.206Z,7.14
2022-11-29T01:57:26.500Z,7.21
2022-11-29T01:58:27.116Z,7.18
2022-11-29T01:59:28.010Z,7.18
2022-11-29T02:00:29.013Z,7.15
2022-11-29T02:01:30.072Z,7.18
2022-11-29T02:02:30.340Z,7.15
2022-11-29T02:03:31.451Z,7.22
2022-11-29T02:04:31.364Z,7.15
2022-11-29T02:05:31.620Z,7.19
2022-11-29T02:06:32.540Z,7.21
2022-11-29T02:07:33.720Z,7.14
2022-11-29T02:08:33.592Z,7.08
2022-11-29T02:09:33.799Z,7.1
2022-11-29T02:10:34.431Z,7.11
2022-11-29T02:11:34.641Z,7.08
2022-11-29T02:12:35.256Z,7.11
2022-11-29T02:13:36.169Z,7.15
2022-11-29T02:14:36.361Z,7.18
2022-11-29T02:15:37.162Z,7.14
2022-11-29T02:16:37.926Z,7.13
2022-11-29T02:17:38.584Z,7.15
2022-11-29T02:18:38.505Z,7.08
2022-11-29T02:19:39.404Z,7.08
2022-11-29T02:20:40.711Z,7.03
2022-11-29T02:21:41.656Z,7.05
2022-11-29T02:22:42.279Z,7.18
2022-11-29T02:23:43.191Z,7.1
2022-11-29T02:24:44.932Z,7.07
2022-11-29T02:25:44.004Z,7.08
2022-11-29T02:26:44.341Z,7.11
2022-11-29T02:27:45.551Z,7.07
2022-11-29T02:28:45.459Z,7.14
2022-11-29T02:29:46.393Z,7.04
2022-11-29T02:30:46.897Z,7.04
2022-11-29T02:31:47.229Z,7
2022-11-29T02:32:47.437Z,7
2022-11-29T02:33:48.676Z,7.01
2022-11-29T02:34:49.617Z,7.01
2022-11-29T02:35:49.545Z,7.03
2022-11-29T02:36:50.052Z,6.95
2022-11-29T02:37:50.226Z,7.01
2022-11-29T02:38:50.418Z,7
2022-11-29T02:39:51.348Z,6.92
2022-11-29T02:40:51.953Z,7.03
2022-11-29T02:41:52.143Z,7.04
2022-11-29T02:42:58.013Z,7
2022-11-29T02:43:52.902Z,6.95
2022-11-29T02:44:53.513Z,7
2022-11-29T02:45:54.564Z,7.01
2022-11-29T02:46:54.635Z,6.96
2022-11-29T02:47:54.832Z,6.97
2022-11-29T02:48:55.047Z,6.95
2022-11-29T02:49:55.537Z,6.89
2022-11-29T02:50:55.859Z,6.95
2022-11-29T02:51:55.808Z,6.89
2022-11-29T02:52:56.720Z,6.96
2022-11-29T02:53:57.926Z,6.93
2022-11-29T02:54:58.110Z,6.92
2022-11-29T02:55:58.351Z,6.83
2022-11-29T02:56:58.967Z,6.93
2022-11-29T02:57:59.453Z,6.83
2022-11-29T02:58:59.661Z,6.92
2022-11-29T03:00:00.002Z,6.85
2022-11-29T03:01:01.254Z,6.89
2022-11-29T03:02:01.614Z,6.93
2022-11-29T03:03:02.655Z,6.87
2022-11-29T03:04:03.303Z,6.82
2022-11-29T03:05:03.512Z,6.82
2022-11-29T03:06:04.740Z,6.89
2022-11-29T03:07:04.795Z,6.82
2022-11-29T03:08:05.863Z,6.82
2022-11-29T03:09:06.490Z,6.85
2022-11-29T03:10:06.694Z,6.85
2022-11-29T03:11:07.733Z,6.92
2022-11-29T03:12:08.664Z,6.87
2022-11-29T03:13:09.250Z,6.82
2022-11-29T03:14:10.139Z,6.83
2022-11-29T03:15:11.054Z,6.87
2022-11-29T03:16:12.123Z,6.85
2022-11-29T03:17:12.389Z,6.82
2022-11-29T03:18:12.284Z,6.77
2022-11-29T03:19:13.241Z,6.77
2022-11-29T03:20:14.171Z,6.78
2022-11-29T03:21:15.503Z,6.8
2022-11-29T03:22:16.010Z,6.7
2022-11-29T03:23:15.608Z,6.77
2022-11-29T03:24:16.811Z,6.71
2022-11-29T03:25:16.998Z,6.74
2022-11-29T03:26:17.648Z,6.75
2022-11-29T03:27:18.541Z,6.72
2022-11-29T03:28:18.872Z,6.71
2022-11-29T03:29:19.495Z,6.68
2022-11-29T03:30:20.779Z,6.7
2022-11-29T03:31:21.796Z,6.7
2022-11-29T03:32:22.129Z,6.68
2022-11-29T03:33:22.332Z,6.56
2022-11-29T03:34:22.550Z,6.72
2022-11-29T03:35:22.759Z,6.68
2022-11-29T03:36:23.506Z,6.59
2022-11-29T03:37:23.451Z,6.72
2022-11-29T03:38:24.372Z,6.59
2022-11-29T03:39:25.008Z,6.6
2022-11-29T03:40:25.350Z,6.72
2022-11-29T03:41:26.382Z,6.64
2022-11-29T03:42:26.692Z,6.6
2022-11-29T03:43:27.002Z,6.7
2022-11-29T03:44:27.915Z,6.7
2022-11-29T03:45:28.463Z,6.85
2022-11-29T03:46:28.645Z,6.74
2022-11-29T03:47:28.946Z,6.75
2022-11-29T03:48:30.131Z,6.72
2022-11-29T03:49:31.054Z,6.74
2022-11-29T03:50:30.977Z,6.71
2022-11-29T03:51:32.282Z,6.68
2022-11-29T03:52:33.213Z,6.74
2022-11-29T03:53:34.117Z,6.71
2022-11-29T03:54:34.158Z,6.71
2022-11-29T03:55:35.359Z,6.77
2022-11-29T03:56:35.610Z,6.75
2022-11-29T03:57:36.295Z,6.74
2022-11-29T03:58:37.378Z,6.72
2022-11-29T03:59:38.141Z,6.72
2022-11-29T04:00:39.349Z,6.71
2022-11-29T04:01:39.392Z,6.71
2022-11-29T04:02:40.353Z,6.77
2022-11-29T04:03:40.128Z,6.75
2022-11-29T04:04:41.338Z,6.8
2022-11-29T04:05:41.721Z,6.83
2022-11-29T04:06:42.626Z,6.85
2022-11-29T04:07:43.389Z,6.89
2022-11-29T04:08:44.008Z,6.8
2022-11-29T04:09:44.626Z,6.8
2022-11-29T04:10:45.675Z,6.85
2022-11-29T04:11:46.772Z,6.82
2022-11-29T04:12:46.984Z,6.85
2022-11-29T04:13:47.592Z,6.85
2022-11-29T04:14:48.995Z,6.82
2022-11-29T04:15:49.054Z,6.74
2022-11-29T04:16:49.224Z,6.86
2022-11-29T04:17:50.434Z,6.86
2022-11-29T04:18:51.339Z,6.75
2022-11-29T04:19:51.563Z,6.82
2022-11-29T04:20:53.890Z,6.87
2022-11-29T04:21:52.627Z,6.83
2022-11-29T04:22:52.992Z,6.86
2022-11-29T04:23:53.618Z,6.82
2022-11-29T04:24:54.527Z,6.87
2022-11-29T04:25:55.422Z,6.77
2022-11-29T04:26:55.637Z,6.77
2022-11-29T04:27:56.826Z,6.8
2022-11-29T04:28:57.014Z,6.82
2022-11-29T04:29:57.627Z,6.87
2022-11-29T04:30:59.207Z,6.82
2022-11-29T04:31:59.031Z,6.87
2022-11-29T04:33:00.242Z,6.87
2022-11-29T04:34:01.135Z,6.83
2022-11-29T04:35:02.057Z,6.83
2022-11-29T04:36:01.672Z,6.82
2022-11-29T04:37:02.900Z,6.82
2022-11-29T04:38:03.422Z,6.78
2022-11-29T04:39:04.324Z,6.83
2022-11-29T04:40:04.665Z,6.86
2022-11-29T04:41:05.003Z,6.86
2022-11-29T04:42:05.749Z,6.78
2022-11-29T04:43:06.362Z,6.82
2022-11-29T04:44:07.273Z,6.82
2022-11-29T04:45:07.900Z,6.85
2022-11-29T04:46:08.693Z,6.86
2022-11-29T04:47:08.699Z,6.89
2022-11-29T04:48:09.886Z,6.95
2022-11-29T04:49:10.098Z,6.87
2022-11-29T04:50:11.027Z,6.89
2022-11-29T04:51:11.235Z,6.86
2022-11-29T04:52:11.722Z,6.8
2022-11-29T04:53:11.957Z,6.86
2022-11-29T04:54:12.861Z,6.82
2022-11-29T04:55:26.310Z,6.95
2022-11-29T04:56:13.979Z,6.83
2022-11-29T04:57:13.918Z,6.9
2022-11-29T04:58:14.531Z,6.9
2022-11-29T04:59:15.469Z,6.78
2022-11-29T05:00:15.763Z,6.82
2022-11-29T05:01:16.603Z,6.87
2022-11-29T05:02:17.752Z,6.93
2022-11-29T05:03:17.232Z,6.8
2022-11-29T05:04:18.462Z,6.83
2022-11-29T05:05:19.411Z,6.83
2022-11-29T05:06:20.028Z,6.77
2022-11-29T05:07:21.401Z,6.85
2022-11-29T05:08:22.034Z,6.78
2022-11-29T05:09:21.925Z,6.86
2022-11-29T05:10:23.137Z,6.77
2022-11-29T05:11:29.068Z,6.74
2022-11-29T05:12:24.374Z,6.8
2022-11-29T05:13:24.714Z,6.8
2022-11-29T05:14:25.322Z,6.78
2022-11-29T05:15:26.214Z,6.83
2022-11-29T05:16:27.396Z,6.87
2022-11-29T05:17:27.888Z,6.8
2022-11-29T05:18:28.072Z,6.89
2022-11-29T05:19:28.403Z,6.89
2022-11-29T05:20:29.630Z,6.78
2022-11-29T05:21:29.558Z,6.83
2022-11-29T05:22:29.714Z,6.86
2022-11-29T05:23:29.937Z,6.86
2022-11-29T05:24:31.131Z,6.83
2022-11-29T05:25:31.566Z,6.78
2022-11-29T05:26:32.189Z,6.87
2022-11-29T05:27:32.502Z,6.85
2022-11-29T05:28:33.116Z,6.87
2022-11-29T05:29:34.004Z,6.77
2022-11-29T05:30:34.212Z,6.75
2022-11-29T05:31:35.221Z,6.83
2022-11-29T05:32:35.794Z,6.85
2022-11-29T05:33:35.417Z,6.8
2022-11-29T05:34:41.035Z,6.87
2022-11-29T05:35:37.701Z,6.78
2022-11-29T05:36:37.587Z,6.77
2022-11-29T05:37:38.785Z,6.86
2022-11-29T05:38:39.426Z,6.85
2022-11-29T05:39:40.355Z,6.82
2022-11-29T05:40:41.330Z,6.77
2022-11-29T05:41:41.953Z,6.7
2022-11-29T05:42:43.279Z,6.83
2022-11-29T05:43:43.185Z,6.72
2022-11-29T05:44:44.965Z,6.71
2022-11-29T05:45:44.719Z,6.75
2022-11-29T05:46:45.882Z,6.78
2022-11-29T05:47:46.425Z,6.71
2022-11-29T05:48:47.332Z,6.8
2022-11-29T05:49:47.528Z,6.71
2022-11-29T05:50:48.024Z,6.72
2022-11-29T05:51:48.618Z,6.77
2022-11-29T05:52:49.344Z,6.67
2022-11-29T05:53:50.265Z,6.71
2022-11-29T05:54:51.506Z,6.7
2022-11-29T05:55:51.717Z,6.68
2022-11-29T05:56:52.902Z,6.74
2022-11-29T05:57:52.857Z,6.7
2022-11-29T05:58:53.263Z,6.75
2022-11-29T05:59:53.609Z,6.72
2022-11-29T06:00:54.520Z,6.71
2022-11-29T06:01:54.513Z,6.8
2022-11-29T06:02:55.729Z,6.75
2022-11-29T06:03:56.152Z,6.75
2022-11-29T06:04:57.014Z,6.72
2022-11-29T06:05:57.919Z,6.72
2022-11-29T06:06:58.124Z,6.68
2022-11-29T06:07:59.242Z,6.68
2022-11-29T06:08:58.906Z,6.68
2022-11-29T06:10:02.303Z,6.6
2022-11-29T06:10:59.238Z,6.57
2022-11-29T06:12:00.443Z,6.56
2022-11-29T06:13:01.051Z,6.62
2022-11-29T06:14:01.650Z,6.6
2022-11-29T06:15:02.285Z,6.56
2022-11-29T06:16:03.673Z,6.68
2022-11-29T06:17:03.794Z,6.7
2022-11-29T06:18:04.693Z,6.62
2022-11-29T06:19:05.587Z,6.72
2022-11-29T06:20:06.220Z,6.6
2022-11-29T06:21:06.592Z,6.71
2022-11-29T06:22:07.487Z,6.6
2022-11-29T06:23:07.792Z,6.57
2022-11-29T06:24:07.738Z,6.57
2022-11-29T06:25:07.808Z,6.74
2022-11-29T06:26:10.055Z,6.6
2022-11-29T06:27:09.699Z,6.6
2022-11-29T06:28:09.974Z,6.62
2022-11-29T06:29:10.224Z,6.68
2022-11-29T06:30:10.265Z,6.64
2022-11-29T06:31:11.914Z,6.6
2022-11-29T06:32:11.765Z,6.6
2022-11-29T06:33:12.473Z,6.57
2022-11-29T06:34:13.401Z,6.59
2022-11-29T06:35:13.649Z,6.6
2022-11-29T06:36:14.556Z,6.56
2022-11-29T06:37:15.461Z,6.62
2022-11-29T06:38:15.672Z,6.62
2022-11-29T06:39:16.308Z,6.62
2022-11-29T06:40:17.488Z,6.59
2022-11-29T06:41:17.406Z,6.64
2022-11-29T06:42:18.014Z,6.59
2022-11-29T06:43:19.027Z,6.7
2022-11-29T06:44:19.641Z,6.6
2022-11-29T06:45:20.857Z,6.57
2022-11-29T06:46:21.574Z,6.57
2022-11-29T06:47:22.078Z,6.6
2022-11-29T06:48:23.263Z,6.65
2022-11-29T06:49:23.175Z,6.62
2022-11-29T06:50:23.804Z,6.56
2022-11-29T06:51:25.036Z,6.64
2022-11-29T06:52:26.223Z,6.57
2022-11-29T06:53:26.550Z,6.62
2022-11-29T06:54:27.176Z,6.56
2022-11-29T06:55:28.056Z,6.5
2022-11-29T06:56:28.376Z,6.54
2022-11-29T06:57:29.552Z,6.46
2022-11-29T06:58:36.563Z,6.53
2022-11-29T06:59:30.782Z,6.47
2022-11-29T07:00:32.122Z,6.54
2022-11-29T07:01:32.512Z,6.46
2022-11-29T07:02:32.832Z,6.49
2022-11-29T07:03:32.566Z,6.5
2022-11-29T07:04:33.183Z,6.52
2022-11-29T07:05:34.211Z,6.44
2022-11-29T07:06:34.435Z,6.49
2022-11-29T07:07:35.130Z,6.46
2022-11-29T07:08:35.206Z,6.44
2022-11-29T07:09:35.428Z,6.47
2022-11-29T07:10:35.904Z,6.43
2022-11-29T07:11:36.811Z,6.49
2022-11-29T07:12:36.849Z,6.52
2022-11-29T07:13:38.219Z,6.59
2022-11-29T07:14:39.415Z,6.44
2022-11-29T07:15:40.103Z,6.62
2022-11-29T07:16:41.044Z,6.56
2022-11-29T07:17:41.508Z,6.53
2022-11-29T07:18:41.700Z,6.46
2022-11-29T07:19:41.623Z,6.53
2022-11-29T07:20:42.827Z,6.46
2022-11-29T07:21:43.481Z,6.49
2022-11-29T07:22:44.670Z,6.52
2022-11-29T07:23:45.109Z,6.43
2022-11-29T07:24:46.618Z,6.64
2022-11-29T07:25:46.784Z,6.59
2022-11-29T07:26:47.384Z,6.56
2022-11-29T07:27:48.003Z,6.57
2022-11-29T07:28:48.323Z,6.64
2022-11-29T07:29:48.812Z,6.5
2022-11-29T07:30:48.729Z,6.56
2022-11-29T07:31:50.475Z,6.44
2022-11-29T07:33:00.895Z,6.52
2022-11-29T07:33:51.369Z,6.47
2022-11-29T07:34:53.153Z,6.56
2022-11-29T07:35:53.343Z,6.59
2022-11-29T07:36:53.569Z,6.6
2022-11-29T07:37:53.463Z,6.62
2022-11-29T07:38:54.397Z,6.53
2022-11-29T07:39:54.681Z,6.59
2022-11-29T07:40:55.892Z,6.47
2022-11-29T07:41:55.838Z,6.49
2022-11-29T07:42:56.755Z,6.49
2022-11-29T07:43:57.371Z,6.44
2022-11-29T07:44:58.270Z,6.54
2022-11-29T07:45:58.472Z,6.59
2022-11-29T07:46:59.332Z,6.64
2022-11-29T07:47:59.936Z,6.54
2022-11-29T07:49:00.286Z,6.6
2022-11-29T07:50:01.196Z,6.6
2022-11-29T07:51:01.561Z,6.62
2022-11-29T07:52:02.478Z,6.64
2022-11-29T07:53:02.683Z,6.6
2022-11-29T07:54:03.715Z,6.7
2022-11-29T07:55:03.666Z,6.56
2022-11-29T07:56:05.246Z,6.72
2022-11-29T07:57:05.438Z,6.68
2022-11-29T07:58:06.351Z,6.67
2022-11-29T07:59:06.544Z,6.6
2022-11-29T08:00:07.204Z,6.74
2022-11-29T08:01:07.338Z,6.54
2022-11-29T08:02:12.381Z,6.72
2022-11-29T08:03:08.269Z,6.53
2022-11-29T08:04:08.548Z,6.56
2022-11-29T08:05:08.198Z,6.53
2022-11-29T08:06:09.419Z,6.56
2022-11-29T08:07:10.122Z,6.67
2022-11-29T08:08:10.845Z,6.59
2022-11-29T08:09:11.385Z,6.57
2022-11-29T08:10:11.933Z,6.6
2022-11-29T08:11:11.967Z,6.6
2022-11-29T08:12:12.582Z,6.59
2022-11-29T08:13:13.777Z,6.74
2022-11-29T08:14:13.861Z,6.75
2022-11-29T08:15:14.853Z,6.67
2022-11-29T08:16:15.688Z,6.75
2022-11-29T08:17:16.257Z,6.65
2022-11-29T08:18:16.161Z,6.72
2022-11-29T08:19:17.082Z,6.7
2022-11-29T08:20:17.283Z,6.68
2022-11-29T08:21:18.213Z,6.74
2022-11-29T08:22:18.763Z,6.74
2022-11-29T08:23:19.684Z,6.75
2022-11-29T08:24:20.028Z,6.75
2022-11-29T08:25:20.952Z,6.72
2022-11-29T08:26:21.159Z,6.82
2022-11-29T08:27:21.477Z,6.8
2022-11-29T08:28:22.114Z,6.82
2022-11-29T08:29:22.349Z,6.82
2022-11-29T08:30:23.609Z,6.77
2022-11-29T08:31:24.044Z,6.78
2022-11-29T08:32:24.128Z,6.8
2022-11-29T08:33:24.145Z,6.77
2022-11-29T08:34:24.478Z,6.87
2022-11-29T08:35:25.134Z,6.86
2022-11-29T08:36:26.094Z,6.85
2022-11-29T08:37:26.054Z,6.89
2022-11-29T08:38:26.976Z,6.95
2022-11-29T08:39:28.298Z,6.85
2022-11-29T08:40:28.530Z,6.9
2022-11-29T08:41:28.729Z,6.9
2022-11-29T08:42:29.062Z,6.87
2022-11-29T08:43:28.974Z,6.87
2022-11-29T08:44:29.386Z,6.89
2022-11-29T08:45:30.423Z,6.95
2022-11-29T08:46:30.730Z,6.89
2022-11-29T08:47:31.644Z,6.92
2022-11-29T08:48:31.619Z,7.03
2022-11-29T08:49:32.300Z,7.03
2022-11-29T08:50:33.777Z,6.97
2022-11-29T08:51:34.003Z,7.03
2022-11-29T08:52:34.516Z,7.04
2022-11-29T08:53:34.438Z,6.95
2022-11-29T08:54:35.195Z,7.01
2022-11-29T08:55:35.568Z,7.14
2022-11-29T08:57:41.355Z,7.14
2022-11-29T08:57:58.439Z,7.14
2022-11-29T08:58:59.948Z,7.03
2022-11-29T09:00:00.204Z,7.08
2022-11-29T09:01:01.400Z,7.05
2022-11-29T09:02:02.305Z,7.04
2022-11-29T09:03:02.853Z,7.08
2022-11-29T09:04:03.578Z,7
2022-11-29T09:05:04.748Z,7.04
2022-11-29T09:06:12.584Z,7.05
2022-11-29T09:07:06.540Z,7.14
2022-11-29T09:08:07.262Z,7.13
2022-11-29T09:09:07.653Z,7.07
2022-11-29T09:10:08.823Z,7.05
2022-11-29T09:11:09.146Z,7.04
2022-11-29T09:12:09.444Z,7.01
2022-11-29T09:13:09.651Z,7.04
2022-11-29T09:14:10.588Z,7.01
2022-11-29T09:15:11.934Z,7.04
2022-11-29T09:16:12.299Z,7.13
2022-11-29T09:17:13.373Z,7.03
2022-11-29T09:18:13.656Z,7.11
2022-11-29T09:19:13.869Z,7.1
2022-11-29T09:20:14.787Z,7.13
2022-11-29T09:21:15.698Z,7.11
2022-11-29T09:22:16.645Z,7.14
2022-11-29T09:23:16.874Z,7.18
2022-11-29T09:24:17.810Z,7.13
2022-11-29T09:25:18.122Z,7.15
2022-11-29T09:26:19.090Z,7.15
2022-11-29T09:27:19.285Z,7.21
2022-11-29T09:28:19.469Z,7.15
2022-11-29T09:29:19.841Z,7.15
2022-11-29T09:30:26.556Z,7.19
2022-11-29T09:31:21.374Z,7.23
2022-11-29T09:32:21.831Z,7.26
2022-11-29T09:33:21.754Z,7.22
2022-11-29T09:34:23.364Z,7.28
2022-11-29T09:35:23.349Z,7.28
2022-11-29T09:36:29.444Z,7.29
2022-11-29T09:37:24.117Z,7.28
2022-11-29T09:38:25.126Z,7.43
2022-11-29T09:39:24.755Z,7.33
2022-11-29T09:40:25.343Z,7.4
2022-11-29T09:41:25.408Z,7.26
2022-11-29T09:42:26.601Z,7.26
2022-11-29T09:43:26.507Z,7.32
2022-11-29T09:44:27.828Z,7.25
2022-11-29T09:45:28.433Z,7.4
2022-11-29T09:46:28.245Z,7.44
2022-11-29T09:47:28.613Z,7.33
2022-11-29T09:48:29.103Z,7.32
2022-11-29T09:49:29.332Z,7.33
2022-11-29T09:50:29.826Z,7.44
2022-11-29T09:51:30.228Z,7.46
2022-11-29T09:52:31.577Z,7.44
2022-11-29T09:53:32.805Z,7.47
2022-11-29T09:54:32.428Z,7.46
2022-11-29T09:55:33.290Z,7.48
2022-11-29T09:56:33.938Z,7.44
2022-11-29T09:57:34.142Z,7.48
2022-11-29T09:58:35.093Z,7.47
2022-11-29T09:59:35.726Z,7.47
2022-11-29T10:00:35.391Z,7.55
2022-11-29T10:01:36.755Z,7.53
2022-11-29T10:02:37.218Z,7.51
2022-11-29T10:03:37.392Z,7.55
2022-11-29T10:04:38.377Z,7.5
2022-11-29T10:05:38.997Z,7.46
2022-11-29T10:06:39.953Z,7.55
2022-11-29T10:07:40.497Z,7.51
2022-11-29T10:08:40.888Z,7.56
2022-11-29T10:09:41.834Z,7.62
2022-11-29T10:10:41.808Z,7.56
2022-11-29T10:11:42.517Z,7.58
2022-11-29T10:12:43.152Z,7.59
2022-11-29T10:13:44.135Z,7.51
2022-11-29T10:14:45.477Z,7.53
2022-11-29T10:15:45.217Z,7.58
2022-11-29T10:16:45.982Z,7.56
2022-11-29T10:17:47.101Z,7.62
2022-11-29T10:18:47.321Z,7.59
2022-11-29T10:19:48.544Z,7.59
2022-11-29T10:20:54.811Z,7.58
2022-11-29T10:21:50.090Z,7.59
2022-11-29T10:22:50.375Z,7.58
2022-11-29T10:23:50.600Z,7.56
2022-11-29T10:24:51.063Z,7.5
2022-11-29T10:25:51.854Z,7.59
2022-11-29T10:26:51.820Z,7.59
2022-11-29T10:27:52.294Z,7.55
2022-11-29T10:28:52.491Z,7.58
2022-11-29T10:29:52.432Z,7.64
2022-11-29T10:30:53.436Z,7.67
2022-11-29T10:31:54.441Z,7.69
2022-11-29T10:32:54.258Z,7.62
2022-11-29T10:33:54.902Z,7.62
2022-11-29T10:34:55.095Z,7.59
2022-11-29T10:35:55.244Z,7.61
2022-11-29T10:36:56.440Z,7.67
2022-11-29T10:38:32.600Z,7.69
2022-11-29T10:38:57.225Z,7.7
2022-11-29T10:39:57.586Z,7.64
2022-11-29T10:40:57.803Z,7.7
2022-11-29T10:41:58.441Z,7.62
2022-11-29T10:42:59.070Z,7.74
2022-11-29T10:43:59.432Z,7.67
2022-11-29T10:45:00.401Z,7.69
2022-11-29T10:46:01.087Z,7.67
2022-11-29T10:47:01.877Z,7.64
2022-11-29T10:48:02.208Z,7.7
2022-11-29T10:49:02.728Z,7.62
2022-11-29T10:50:02.681Z,7.67
2022-11-29T10:51:03.192Z,7.72
2022-11-29T10:52:03.700Z,7.67
2022-11-29T10:53:06.043Z,7.7
2022-11-29T10:54:05.122Z,7.75
2022-11-29T10:55:05.103Z,7.64
2022-11-29T10:56:06.437Z,7.72
2022-11-29T10:57:06.715Z,7.7
2022-11-29T10:58:06.946Z,7.62
2022-11-29T10:59:07.557Z,7.74
2022-11-29T11:00:08.774Z,7.77
2022-11-29T11:01:09.479Z,7.62
2022-11-29T11:02:09.761Z,7.7
2022-11-29T11:03:10.053Z,7.64
2022-11-29T11:04:10.593Z,7.62
2022-11-29T11:05:10.546Z,7.62
2022-11-29T11:06:11.280Z,7.77
2022-11-29T11:07:12.774Z,7.74
2022-11-29T11:08:12.823Z,7.66
2022-11-29T11:09:13.754Z,7.75
2022-11-29T11:10:13.957Z,7.66
2022-11-29T11:11:14.471Z,7.67
2022-11-29T11:12:14.723Z,7.72
2022-11-29T11:13:15.023Z,7.75
2022-11-29T11:14:14.765Z,7.67
2022-11-29T11:15:15.677Z,7.67
2022-11-29T11:16:15.948Z,7.78
2022-11-29T11:17:16.747Z,7.78
2022-11-29T11:18:17.401Z,7.78
2022-11-29T11:19:18.036Z,7.78
2022-11-29T11:20:17.995Z,7.81
2022-11-29T11:21:18.984Z,7.84
2022-11-29T11:22:19.906Z,7.83
2022-11-29T11:23:20.525Z,7.77
2022-11-29T11:24:21.039Z,7.84
2022-11-29T11:25:21.378Z,7.85
2022-11-29T11:26:22.426Z,7.84
2022-11-29T11:27:22.368Z,7.9
2022-11-29T11:28:23.478Z,7.87
2022-11-29T11:29:23.675Z,7.87
2022-11-29T11:30:24.623Z,7.84
2022-11-29T11:31:25.211Z,7.91
2022-11-29T11:32:25.605Z,7.88
2022-11-29T11:33:26.795Z,7.87
2022-11-29T11:34:27.294Z,7.81
2022-11-29T11:35:27.315Z,7.9
2022-11-29T11:36:27.748Z,7.93
2022-11-29T11:37:28.423Z,7.9
2022-11-29T11:38:28.622Z,7.84
2022-11-29T11:39:28.871Z,7.83
2022-11-29T11:40:29.941Z,7.91
2022-11-29T11:41:30.797Z,7.95
2022-11-29T11:42:30.765Z,7.87
2022-11-29T11:43:31.969Z,7.93
2022-11-29T11:44:51.981Z,7.9
2022-11-29T11:45:32.519Z,7.81
2022-11-29T11:46:32.962Z,7.93
2022-11-29T11:47:32.990Z,7.93
2022-11-29T11:48:33.911Z,7.91
2022-11-29T11:49:34.811Z,7.91
2022-11-29T11:50:35.301Z,8.06
2022-11-29T11:51:35.510Z,8.06
2022-11-29T11:52:43.815Z,8.06
2022-11-29T11:53:36.632Z,8.02
2022-11-29T11:54:36.916Z,8.11
2022-11-29T11:55:36.603Z,7.91
2022-11-29T11:56:37.650Z,7.91
2022-11-29T11:57:38.879Z,7.96
2022-11-29T11:58:39.088Z,8.01
2022-11-29T11:59:39.410Z,8.03
2022-11-29T12:01:07.740Z,8.06
2022-11-29T12:01:40.306Z,8.02
2022-11-29T12:02:41.737Z,8.09
2022-11-29T12:03:41.880Z,8.02
2022-11-29T12:04:42.808Z,8.06
2022-11-29T12:05:46.677Z,7.93
2022-11-29T12:06:43.453Z,8.03
2022-11-29T12:08:13.143Z,8.06
2022-11-29T12:08:44.040Z,7.98
2022-11-29T12:09:44.426Z,7.9
2022-11-29T12:10:44.939Z,7.93
2022-11-29T12:11:45.436Z,8.08
2022-11-29T12:12:45.662Z,8.05
2022-11-29T12:13:45.600Z,8.05
2022-11-29T12:14:47.344Z,8.09
2022-11-29T12:15:47.892Z,8.09
2022-11-29T12:16:48.456Z,8.03
2022-11-29T12:17:48.988Z,8.13
2022-11-29T12:18:49.484Z,8.09
2022-11-29T12:19:49.976Z,8.09
2022-11-29T12:20:50.188Z,8.03
2022-11-29T12:21:50.535Z,8.02
2022-11-29T12:22:54.572Z,7.9
2022-11-29T12:23:53.215Z,7.9
2022-11-29T12:24:54.095Z,8.01
2022-11-29T12:25:54.728Z,7.93
2022-11-29T12:27:12.970Z,8.02
2022-11-29T12:28:21.013Z,7.96
2022-11-29T12:29:12.978Z,8.08
2022-11-29T12:30:13.954Z,8.01
2022-11-29T12:31:15.091Z,8.08
2022-11-29T12:32:15.870Z,8.02
2022-11-29T12:33:16.156Z,8.03
2022-11-29T12:34:22.903Z,8.05
2022-11-29T12:35:24.585Z,8.09
2022-11-29T12:36:19.176Z,8.06
2022-11-29T12:37:19.001Z,8.09
2022-11-29T12:38:20.187Z,8.06
2022-11-29T12:39:21.098Z,8.05
2022-11-29T12:40:21.305Z,8.02
2022-11-29T12:41:21.922Z,8.11
2022-11-29T12:42:22.846Z,8.05
2022-11-29T12:43:22.866Z,8.06
2022-11-29T12:44:23.057Z,8.01
2022-11-29T12:45:23.069Z,7.95
2022-11-29T12:46:24.157Z,7.93
2022-11-29T12:47:52.199Z,8.02
2022-11-29T12:48:44.587Z,8.06
2022-11-29T12:49:44.268Z,7.91
2022-11-29T12:50:44.981Z,8.01
2022-11-29T12:51:45.910Z,7.95
2022-11-29T12:52:46.109Z,7.83
2022-11-29T12:53:47.028Z,7.9
2022-11-29T12:54:48.579Z,7.87
2022-11-29T12:55:48.574Z,7.81
2022-11-29T12:56:48.765Z,7.84
2022-11-29T12:57:49.514Z,7.78
2022-11-29T12:58:52.328Z,7.75
2022-11-29T12:59:51.625Z,7.8
2022-11-29T13:00:51.677Z,7.74
2022-11-29T13:01:52.325Z,7.8
2022-11-29T13:02:53.326Z,7.77
2022-11-29T13:03:53.805Z,7.83
2022-11-29T13:05:00.407Z,7.83
2022-11-29T13:05:55.047Z,7.75
2022-11-29T13:06:56.216Z,7.75
2022-11-29T13:07:56.507Z,7.72
2022-11-29T13:08:56.795Z,7.66
2022-11-29T13:09:57.425Z,7.78
2022-11-29T13:10:57.515Z,7.64
2022-11-29T13:11:57.495Z,7.75
2022-11-29T13:12:58.474Z,7.75
2022-11-29T13:14:41.948Z,7.7
2022-11-29T13:15:00.038Z,7.7
2022-11-29T13:15:59.341Z,7.64
2022-11-29T13:16:59.769Z,7.7
2022-11-29T13:17:59.819Z,7.62
2022-11-29T13:19:01.085Z,7.74
2022-11-29T13:20:01.312Z,7.74
2022-11-29T13:21:01.937Z,7.64
2022-11-29T13:22:02.848Z,7.59
2022-11-29T13:23:03.797Z,7.7
2022-11-29T13:24:19.083Z,7.69
2022-11-29T13:25:04.980Z,7.62
2022-11-29T13:26:06.208Z,7.66
2022-11-29T13:27:06.417Z,7.74
2022-11-29T13:28:07.518Z,7.72
2022-11-29T13:29:07.517Z,7.72
2022-11-29T13:30:09.150Z,7.72
2022-11-29T13:31:09.836Z,7.67